Latest Coastal Weather Observations for Swanbourne

IDW60701

Issued at 6:03 pm WST Sunday 4 December 2016 (issued every 10 minutes, with the page automatically refreshed every 10 minutes)

About coastal observations | Map of coastal stations | Coastal observations for WA | Marine services | Other Formats
Station Details ID: 009215 Name: SWANBOURNE Lat: -31.96 Lon: 115.76 Height: 40.96 m
Data from the previous 72 hours. | See also: Recent months at Swanbourne
Date/Time
WST
Temp
°C
Wind Pressure Rain since
9am
mm
Weather Cloud Vis
km
Sea
Height
m
Swell
Dir  Spd
kts
Gust
kts
hPa Trend Height
m
Period
s
Dir
04/06:00pm 18.7 SSW 13 20 - - 0.0 - - - - - - -
04/05:30pm 19.3 SSW 14 20 - - 0.0 - - - - - - -
04/05:00pm 20.0 SSW 13 20 - - 0.0 - - - - - - -
04/04:30pm 19.4 SW 13 19 - - 0.0 - - - - - - -
04/04:00pm 19.9 SW 13 18 - - 0.0 - - - - - - -
04/03:30pm 20.2 SW 12 19 - - 0.0 - - - - - - -
04/03:00pm 20.2 SW 13 18 - - 0.0 - - - - - - -
04/02:30pm 20.2 SW 13 17 - - 0.0 - - - - - - -
04/02:00pm 20.3 SW 13 19 - - 0.0 - - - - - - -
04/01:30pm 20.5 SW 13 18 - - 0.0 - - - - - - -
04/01:00pm 20.5 SW 12 18 - - 0.0 - - - - - - -
04/12:30pm 20.6 SW 13 18 - - 0.0 - - - - - - -
04/12:00pm 20.7 SW 13 18 - - 0.0 - - - - - - -
04/11:30am 20.4 SW 11 18 - - 0.0 - - - - - - -
04/11:00am 20.3 SSW 8 14 - - 0.0 - - - - - - -
04/10:30am 19.7 SE 5 10 - - 0.0 - - - - - - -
04/10:00am 18.8 SSE 7 12 - - 0.0 - - - - - - -
04/09:30am 18.9 SE 7 15 - - 0.0 - - - - - - -
04/09:00am 18.1 SE 8 13 - - 0.2 - - - - - - -
04/08:30am 18.3 SSE 10 15 - - 0.2 - - - - - - -
04/08:00am 17.5 SE 10 16 - - 0.2 - - - - - - -
04/07:30am 17.0 SSE 10 17 - - 0.2 - - - - - - -
04/07:00am 15.9 SE 8 13 - - 0.2 - - - - - - -
04/06:30am 15.1 SE 9 14 - - 0.2 - - - - - - -
04/06:00am 15.1 SE 10 15 - - 0.2 - - - - - - -
04/05:30am 14.7 SE 8 11 - - 0.2 - - - - - - -
04/05:00am 14.9 SE 7 10 - - 0.2 - - - - - - -
04/04:30am 15.2 SSE 10 16 - - 0.2 - - - - - - -
04/04:00am 15.4 SSE 9 19 - - 0.2 - - - - - - -
04/03:30am 15.1 SE 8 14 - - 0.2 - - - - - - -
04/03:00am 16.1 SSE 5 9 - - 0.2 - - - - - - -
04/02:30am 16.8 S 9 15 - - 0.2 - - - - - - -
04/02:00am 17.3 S 10 14 - - 0.2 - - - - - - -
04/01:30am 17.6 SSW 11 17 - - 0.2 - - - - - - -
04/01:00am 17.7 S 10 17 - - 0.2 - - - - - - -
04/12:30am 17.9 S 13 21 - - 0.2 - - - - - - -
04/12:00am 17.9 SSW 11 16 - - 0.2 - - - - - - -
 
Date/Time
WST
Temp
°C
Wind Pressure Rain since
9am
mm
Weather Cloud Vis
km
Sea
Height
m
Swell
Dir  Spd
kts
Gust
kts
hPa Trend Height
m
Period
s
Dir
03/11:30pm 18.3 SSW 10 18 - - 0.2 - - - - - - -
03/11:00pm 18.2 SSW 8 13 - - 0.2 - - - - - - -
03/10:30pm 18.1 S 7 11 - - 0.2 - - - - - - -
03/10:00pm 18.5 SSW 9 13 - - 0.2 - - - - - - -
03/09:30pm 18.7 SSW 11 15 - - 0.2 - - - - - - -
03/09:00pm 19.0 SSW 12 16 - - 0.2 - - - - - - -
03/08:30pm 19.1 SW 12 16 - - 0.2 - - - - - - -
03/08:00pm 19.2 SW 11 15 - - 0.2 - - - - - - -
03/07:30pm 19.0 SW 11 16 - - 0.2 - - - - - - -
03/07:00pm 18.8 SW 11 16 - - 0.2 - - - - - - -
03/06:30pm 19.2 WSW 12 18 - - 0.2 - - - - - - -
03/06:00pm 18.0 WSW 15 21 - - 0.2 - - - - - - -
03/05:49pm 18.9 WSW 15 27 - - 0.2 - - - - - - -
03/05:30pm 20.8 WSW 10 16 - - 0.2 - - - - - - -
03/05:00pm 21.6 W 10 16 - - 0.2 - - - - - - -
03/04:30pm 22.0 W 9 13 - - 0.2 - - - - - - -
03/04:00pm 20.9 W 10 14 - - 0.2 - - - - - - -
03/03:30pm 19.9 W 9 12 - - 0.2 - - - - - - -
03/03:00pm 19.7 W 11 15 - - 0.0 - - - - - - -
03/02:30pm 20.5 W 9 13 - - 0.0 - - - - - - -
03/02:00pm 21.9 W 9 13 - - 0.0 - - - - - - -
03/01:30pm 21.5 WSW 9 15 - - 0.0 - - - - - - -
03/01:00pm 21.4 WSW 10 13 - - 0.0 - - - - - - -
03/12:30pm 21.1 WSW 11 15 - - 0.0 - - - - - - -
03/12:00pm 21.7 WSW 10 13 - - 0.0 - - - - - - -
03/11:30am 21.6 WSW 9 13 - - 0.0 - - - - - - -
03/11:00am 20.7 WSW 10 13 - - 0.0 - - - - - - -
03/10:30am 20.8 WSW 8 13 - - 0.0 - - - - - - -
03/10:00am 20.3 SW 9 13 - - 0.0 - - - - - - -
03/09:30am 19.7 SW 8 11 - - 0.0 - - - - - - -
03/09:00am 19.4 SW 9 13 - - 0.0 - - - - - - -
03/08:30am 20.2 SW 9 14 - - 0.0 - - - - - - -
03/08:00am 18.5 SW 8 13 - - 0.0 - - - - - - -
03/07:30am 18.6 SW 7 11 - - 0.0 - - - - - - -
03/07:00am 18.2 SSW 8 13 - - 0.0 - - - - - - -
03/06:30am 17.4 SSW 6 10 - - 0.0 - - - - - - -
03/06:00am 16.6 SW 10 14 - - 0.0 - - - - - - -
03/05:30am 16.6 SSW 9 13 - - 0.0 - - - - - - -
03/05:00am 16.2 SSW 7 12 - - 0.0 - - - - - - -
03/04:30am 16.4 SSW 8 13 - - 0.0 - - - - - - -
03/04:00am 16.6 SSW 9 13 - - 0.0 - - - - - - -
03/03:30am 16.7 SSW 10 15 - - 0.0 - - - - - - -
03/03:00am 16.9 SSW 11 17 - - 0.0 - - - - - - -
03/02:30am 17.0 SSW 10 17 - - 0.0 - - - - - - -
03/02:00am 17.2 SSW 10 16 - - 0.0 - - - - - - -
03/01:30am 17.3 SSW 10 13 - - 0.0 - - - - - - -
03/01:00am 17.6 SSW 10 15 - - 0.0 - - - - - - -
03/12:30am 17.7 SSW 12 17 - - 0.0 - - - - - - -
03/12:00am 17.7 SSW 10 15 - - 0.0 - - - - - - -
 
Date/Time
WST
Temp
°C
Wind Pressure Rain since
9am
mm
Weather Cloud Vis
km
Sea
Height
m
Swell
Dir  Spd
kts
Gust
kts
hPa Trend Height
m
Period
s
Dir
02/11:30pm 17.7 SSW 10 14 - - 0.0 - - - - - - -
02/11:00pm 17.9 SW 11 16 - - 0.0 - - - - - - -
02/10:30pm 17.6 SW 9 14 - - 0.0 - - - - - - -
02/10:00pm 17.7 SSW 8 13 - - 0.0 - - - - - - -
02/09:30pm 18.0 SSW 8 12 - - 0.0 - - - - - - -
02/09:00pm 17.8 S 6 11 - - 0.0 - - - - - - -
02/08:30pm 17.6 S 7 9 - - 0.0 - - - - - - -
02/08:00pm 17.6 S 8 13 - - 0.0 - - - - - - -
02/07:30pm 17.8 SSW 10 16 - - 0.0 - - - - - - -
02/07:00pm 18.1 SSW 11 17 - - 0.0 - - - - - - -
02/06:30pm 19.0 SSW 12 16 - - 0.0 - - - - - - -
02/06:00pm 19.6 SSW 11 17 - - 0.0 - - - - - - -
02/05:30pm 20.3 SSW 11 18 - - 0.0 - - - - - - -
02/05:00pm 20.1 SW 13 18 - - 0.0 - - - - - - -
02/04:30pm 20.8 SW 11 15 - - 0.0 - - - - - - -
02/04:00pm 20.4 SSW 12 15 - - 0.0 - - - - - - -
02/03:30pm 21.4 SW 13 19 - - 0.0 - - - - - - -
02/03:00pm 21.9 SW 11 16 - - 0.0 - - - - - - -
02/02:30pm 21.5 SW 11 15 - - 0.0 - - - - - - -
02/02:00pm 22.0 SW 12 17 - - 0.0 - - - - - - -
02/01:30pm 21.3 SW 12 17 - - 0.0 - - - - - - -
02/01:00pm 22.1 SW 11 16 - - 0.0 - - - - - - -
02/12:30pm 22.6 SW 10 15 - - 0.0 - - - - - - -
02/12:00pm 21.0 SW 8 11 - - 0.0 - - - - - - -
02/11:30am 21.1 SW 8 11 - - 0.0 - - - - - - -
02/11:00am 21.1 SW 8 12 - - 0.0 - - - - - - -
02/10:30am 20.4 SW 7 10 - - 0.0 - - - - - - -
02/10:00am 19.8 SW 8 11 - - 0.0 - - - - - - -
02/09:30am 19.9 SW 7 9 - - 0.0 - - - - - - -
02/09:00am 20.2 SSW 4 7 - - 0.0 - - - - - - -
02/08:30am 19.7 ENE 6 11 - - 0.0 - - - - - - -
02/08:00am 19.1 ENE 8 12 - - 0.0 - - - - - - -
02/07:30am 18.2 ENE 6 10 - - 0.0 - - - - - - -
02/07:00am 17.8 ENE 3 6 - - 0.0 - - - - - - -
02/06:30am 16.5 E 4 7 - - 0.0 - - - - - - -
02/06:00am 15.3 E 4 8 - - 0.0 - - - - - - -
02/05:30am 13.5 E 6 8 - - 0.0 - - - - - - -
02/05:00am 13.7 ESE 4 5 - - 0.0 - - - - - - -
02/04:30am 14.5 ESE 6 10 - - 0.0 - - - - - - -
02/04:00am 15.0 ESE 6 10 - - 0.0 - - - - - - -
02/03:30am 15.3 ESE 9 15 - - 0.0 - - - - - - -
02/03:00am 15.2 ESE 6 10 - - 0.0 - - - - - - -
02/02:30am 15.2 ESE 7 10 - - 0.0 - - - - - - -
02/02:00am 15.1 SE 6 10 - - 0.0 - - - - - - -
02/01:30am 14.9 SE 6 9 - - 0.0 - - - - - - -
02/01:00am 15.4 SE 6 11 - - 0.0 - - - - - - -
02/12:30am 15.8 SSE 6 9 - - 0.0 - - - - - - -
02/12:00am 16.3 SSE 7 11 - - 0.0 - - - - - - -
 
Date/Time
WST
Temp
°C
Wind Pressure Rain since
9am
mm
Weather Cloud Vis
km
Sea
Height
m
Swell
Dir  Spd
kts
Gust
kts
hPa Trend Height
m
Period
s
Dir
01/11:30pm 16.9 SSE 6 10 - - 0.0 - - - - - - -
01/11:00pm 17.3 SSE 6 11 - - 0.0 - - - - - - -
01/10:30pm 18.1 SSE 7 11 - - 0.0 - - - - - - -
01/10:00pm 18.3 S 8 11 - - 0.0 - - - - - - -
01/09:30pm 18.4 S 10 17 - - 0.0 - - - - - - -
01/09:00pm 18.4 S 11 18 - - 0.0 - - - - - - -
01/08:30pm 18.0 SSW 11 17 - - 0.0 - - - - - - -
01/08:00pm 18.0 SSW 11 17 - - 0.0 - - - - - - -
01/07:30pm 17.9 SSW 12 16 - - 0.0 - - - - - - -
01/07:00pm 18.0 SSW 12 18 - - 0.0 - - - - - - -
01/06:30pm 18.6 SSW 11 18 - - 0.0 - - - - - - -

Other Formats:

Comma delimited format used in spreadsheet applications
http://www.bom.gov.au/fwo/IDW60701/IDW60701.94614.axf

JavaScript Object Notation format (JSON) in row-major order
http://www.bom.gov.au/fwo/IDW60701/IDW60701.94614.json